Time;durP1;ratioP1;P1;durP2;ratioP2;P2;SDS_P1;SDS_P2;PMS_P1;PMS_P2;Temp;Humidity;BMP_temperature;BMP_pressure;BME280_temperature;BME280_humidity;BME280_pressure;Samples;Min_cycle;Max_cycle;Signal;HPM_P1;HPM_P2
2022/07/27 00:00:37;;;;;;;2.67;2.37;;;;;;;;;;5057924;28;20201;-72
2022/07/27 00:03:03;;;;;;;5.10;2.63;;;;;;;;;;5066362;28;20193;-72
2022/07/27 00:05:29;;;;;;;2.93;2.50;;;;;;;;;;5075360;28;20204;-73
2022/07/27 00:07:56;;;;;;;3.60;2.60;;;;;;;;;;5081778;28;20255;-73
2022/07/27 00:10:22;;;;;;;3.77;2.70;;;;;;;;;;5066867;28;20255;-72
2022/07/27 00:12:48;;;;;;;2.60;2.40;;;;;;;;;;5059432;28;20193;-73
2022/07/27 00:15:14;;;;;;;3.33;2.60;;;;;;;;;;5068853;28;20244;-72
2022/07/27 00:17:40;;;;;;;3.40;2.67;;;;;;;;;;5069048;28;20226;-72
2022/07/27 00:20:07;;;;;;;3.33;2.60;;;;;;;;;;5076275;28;20588;-73
2022/07/27 00:22:33;;;;;;;2.63;2.43;;;;;;;;;;5068751;28;20233;-73
2022/07/27 00:24:59;;;;;;;2.60;2.40;;;;;;;;;;5077915;28;20189;-73
2022/07/27 00:27:25;;;;;;;2.50;2.30;;;;;;;;;;5068713;28;20177;-72
2022/07/27 00:29:51;;;;;;;4.13;2.70;;;;;;;;;;5064638;28;20190;-72
2022/07/27 00:32:17;;;;;;;2.93;2.50;;;;;;;;;;5076314;28;20173;-73
2022/07/27 00:34:43;;;;;;;3.50;2.80;;;;;;;;;;5058879;28;20251;-72
2022/07/27 00:37:09;;;;;;;2.73;2.53;;;;;;;;;;5070578;28;20315;-72
2022/07/27 00:39:36;;;;;;;3.50;2.80;;;;;;;;;;5078681;28;20880;-72
2022/07/27 00:42:02;;;;;;;4.07;2.80;;;;;;;;;;5083143;28;20183;-72
2022/07/27 00:44:29;;;;;;;2.60;2.40;;;;;;;;;;5071869;28;20682;-72
2022/07/27 00:46:56;;;;;;;2.97;2.30;;;;;;;;;;5070465;28;20188;-73
2022/07/27 00:49:22;;;;;;;2.87;2.57;;;;;;;;;;5059010;28;20228;-73
2022/07/27 00:51:49;;;;;;;3.10;2.60;;;;;;;;;;5059322;28;20185;-72
2022/07/27 00:54:16;;;;;;;4.73;3.00;;;;;;;;;;5058769;28;20237;-72
2022/07/27 00:56:42;;;;;;;3.23;2.80;;;;;;;;;;5060508;28;20202;-72
2022/07/27 00:59:10;;;;;;;3.00;2.80;;;;;;;;;;5062385;28;20234;-72
2022/07/27 01:01:36;;;;;;;4.63;3.20;;;;;;;;;;5064632;28;20664;-73
2022/07/27 01:04:02;;;;;;;3.83;2.83;;;;;;;;;;5060592;28;20205;-72
2022/07/27 01:06:29;;;;;;;4.10;2.80;;;;;;;;;;5067746;28;20649;-73
2022/07/27 01:09:55;;;;;;;4.37;2.43;;;;;;;;;;5077615;28;20618;-73
2022/07/27 01:11:44;;;;;;;5.53;3.50;;;;;;;;;;5052708;28;20197;-72
2022/07/27 01:14:12;;;;;;;3.50;2.53;;;;;;;;;;5062551;28;20290;-72
2022/07/27 01:16:38;;;;;;;3.70;2.87;;;;;;;;;;5068043;28;20247;-73
2022/07/27 01:19:05;;;;;;;3.70;2.67;;;;;;;;;;5078819;28;20228;-72
2022/07/27 01:21:35;;;;;;;3.83;2.40;;;;;;;;;;5067631;28;20274;-73
2022/07/27 01:24:01;;;;;;;3.30;2.80;;;;;;;;;;5073808;28;20568;-72
2022/07/27 01:26:28;;;;;;;5.10;2.97;;;;;;;;;;5067303;28;20659;-72
2022/07/27 01:28:58;;;;;;;3.00;2.67;;;;;;;;;;5092392;28;20603;-73
2022/07/27 01:31:24;;;;;;;2.93;2.60;;;;;;;;;;5075449;28;20189;-73
2022/07/27 01:33:50;;;;;;;3.17;2.67;;;;;;;;;;5069449;28;20213;-73
2022/07/27 01:36:17;;;;;;;3.40;2.60;;;;;;;;;;5069680;28;20274;-72
2022/07/27 01:38:43;;;;;;;3.10;2.80;;;;;;;;;;5070660;28;20586;-73
2022/07/27 01:41:09;;;;;;;3.70;2.93;;;;;;;;;;5062489;28;20570;-73
2022/07/27 01:43:36;;;;;;;2.80;2.60;;;;;;;;;;5066559;28;20201;-73
2022/07/27 01:46:02;;;;;;;3.47;2.50;;;;;;;;;;5063734;28;20622;-73
2022/07/27 01:48:29;;;;;;;5.07;2.60;;;;;;;;;;5064898;28;20211;-72
2022/07/27 01:50:55;;;;;;;2.87;2.50;;;;;;;;;;5075672;28;20185;-72
2022/07/27 01:53:21;;;;;;;4.90;2.40;;;;;;;;;;5069620;28;20204;-74
2022/07/27 01:55:48;;;;;;;3.03;2.70;;;;;;;;;;5065253;28;20606;-73
2022/07/27 01:58:14;;;;;;;2.90;2.70;;;;;;;;;;5049500;28;20291;-73
2022/07/27 02:00:40;;;;;;;3.67;2.60;;;;;;;;;;5063423;28;20172;-73
2022/07/27 02:03:07;;;;;;;2.97;2.60;;;;;;;;;;5065001;28;20205;-73
2022/07/27 02:05:33;;;;;;;2.60;2.40;;;;;;;;;;5070698;28;20176;-73
2022/07/27 02:07:59;;;;;;;2.83;2.30;;;;;;;;;;5069567;28;20185;-72
2022/07/27 02:10:26;;;;;;;2.53;2.33;;;;;;;;;;5074091;28;20577;-73
2022/07/27 02:12:52;;;;;;;2.50;2.30;;;;;;;;;;5071000;28;20246;-73
2022/07/27 02:15:19;;;;;;;3.53;2.20;;;;;;;;;;5065709;28;20207;-73
2022/07/27 02:17:46;;;;;;;3.13;2.27;;;;;;;;;;5070000;28;20181;-73
2022/07/27 02:20:13;;;;;;;2.97;2.10;;;;;;;;;;5072883;28;20649;-73
2022/07/27 02:22:39;;;;;;;2.87;2.00;;;;;;;;;;5070157;28;20613;-73
2022/07/27 02:25:06;;;;;;;2.23;2.03;;;;;;;;;;5073464;28;20240;-73
2022/07/27 02:27:32;;;;;;;2.00;1.90;;;;;;;;;;5072246;28;20184;-72
2022/07/27 02:29:58;;;;;;;2.53;2.03;;;;;;;;;;5072773;28;20181;-72
2022/07/27 02:32:24;;;;;;;1.80;1.70;;;;;;;;;;5062932;28;20189;-72
2022/07/27 02:34:50;;;;;;;2.23;1.80;;;;;;;;;;5072902;28;20201;-72
2022/07/27 02:37:16;;;;;;;2.10;1.90;;;;;;;;;;5075241;28;20660;-72
2022/07/27 02:39:43;;;;;;;2.87;2.10;;;;;;;;;;5076213;28;20176;-72
2022/07/27 02:42:09;;;;;;;2.30;1.97;;;;;;;;;;5070853;28;20200;-72
2022/07/27 02:44:35;;;;;;;2.17;1.70;;;;;;;;;;5070751;28;20189;-73
2022/07/27 02:47:02;;;;;;;1.80;1.70;;;;;;;;;;5073996;28;20725;-73
2022/07/27 02:49:28;;;;;;;2.63;1.70;;;;;;;;;;5070204;28;20265;-73
2022/07/27 02:51:54;;;;;;;3.93;1.87;;;;;;;;;;5067313;28;20222;-73
2022/07/27 02:54:20;;;;;;;2.00;1.80;;;;;;;;;;5069522;28;20666;-73
2022/07/27 02:56:47;;;;;;;1.90;1.80;;;;;;;;;;5062997;28;20314;-73
2022/07/27 02:59:14;;;;;;;1.80;1.70;;;;;;;;;;5062220;28;20173;-73
2022/07/27 03:01:40;;;;;;;2.33;1.70;;;;;;;;;;5064685;28;20181;-73
2022/07/27 03:04:06;;;;;;;1.67;1.57;;;;;;;;;;5065944;28;22223;-72
2022/07/27 03:06:32;;;;;;;1.43;1.33;;;;;;;;;;5066626;28;20197;-72
2022/07/27 03:08:59;;;;;;;1.60;1.50;;;;;;;;;;5070884;28;20191;-72
2022/07/27 03:11:25;;;;;;;1.70;1.60;;;;;;;;;;5068435;28;20197;-72
2022/07/27 03:13:51;;;;;;;1.70;1.40;;;;;;;;;;5069261;28;20205;-72
2022/07/27 03:16:17;;;;;;;1.57;1.47;;;;;;;;;;5070967;28;20555;-72
2022/07/27 03:18:43;;;;;;;1.53;1.43;;;;;;;;;;5063179;28;20261;-72
2022/07/27 03:21:09;;;;;;;1.90;1.50;;;;;;;;;;5069329;28;20176;-72
2022/07/27 03:23:35;;;;;;;1.50;1.40;;;;;;;;;;5068268;28;20689;-72
2022/07/27 03:26:02;;;;;;;2.13;1.40;;;;;;;;;;5068264;28;20177;-72
2022/07/27 03:28:28;;;;;;;1.43;1.30;;;;;;;;;;5068045;28;20200;-72
2022/07/27 03:30:54;;;;;;;2.40;1.30;;;;;;;;;;5068285;28;20192;-72
2022/07/27 03:33:20;;;;;;;1.53;1.43;;;;;;;;;;5071609;28;20207;-72
2022/07/27 03:35:46;;;;;;;1.53;1.40;;;;;;;;;;5071423;28;20387;-72
2022/07/27 03:38:12;;;;;;;1.50;1.40;;;;;;;;;;5062159;28;20262;-73
2022/07/27 03:40:39;;;;;;;1.50;1.33;;;;;;;;;;5065972;28;20612;-72
2022/07/27 03:43:05;;;;;;;2.30;1.20;;;;;;;;;;5066888;28;20295;-73
2022/07/27 03:45:32;;;;;;;1.30;1.20;;;;;;;;;;5063551;28;20330;-72
2022/07/27 03:47:58;;;;;;;1.30;1.20;;;;;;;;;;5063526;28;20200;-73
2022/07/27 03:50:24;;;;;;;1.37;1.20;;;;;;;;;;5059148;28;20650;-73
2022/07/27 03:52:50;;;;;;;1.63;1.30;;;;;;;;;;5061940;28;20201;-72
2022/07/27 03:55:17;;;;;;;1.30;1.23;;;;;;;;;;5061659;28;20278;-72
2022/07/27 03:57:43;;;;;;;2.17;1.20;;;;;;;;;;5065133;28;20188;-72
2022/07/27 04:00:13;;;;;;;1.07;1.00;;;;;;;;;;5068965;28;20186;-72
2022/07/27 04:02:39;;;;;;;1.17;1.00;;;;;;;;;;5066953;28;20241;-72
2022/07/27 04:05:06;;;;;;;1.00;1.00;;;;;;;;;;5072132;28;20181;-72
2022/07/27 04:07:32;;;;;;;2.07;1.00;;;;;;;;;;5067202;28;20193;-72
2022/07/27 04:09:58;;;;;;;1.33;1.23;;;;;;;;;;5065194;28;20189;-72
2022/07/27 04:12:25;;;;;;;1.20;1.10;;;;;;;;;;5072411;28;20619;-72
2022/07/27 04:14:51;;;;;;;1.20;1.10;;;;;;;;;;5066451;28;20224;-72
2022/07/27 04:17:18;;;;;;;1.87;1.13;;;;;;;;;;5066034;28;20642;-72
2022/07/27 04:19:44;;;;;;;1.57;1.10;;;;;;;;;;5065616;28;20646;-72
2022/07/27 04:22:10;;;;;;;3.13;1.20;;;;;;;;;;5078872;28;20181;-72
2022/07/27 04:24:36;;;;;;;2.50;1.00;;;;;;;;;;5069278;28;21249;-72
2022/07/27 04:27:02;;;;;;;1.47;0.90;;;;;;;;;;5063006;28;20193;-72
2022/07/27 04:29:28;;;;;;;2.60;1.03;;;;;;;;;;5067623;28;20200;-72
2022/07/27 04:31:55;;;;;;;1.13;1.03;;;;;;;;;;5061190;28;20543;-72
2022/07/27 04:34:21;;;;;;;1.00;0.90;;;;;;;;;;5064265;28;20189;-73
2022/07/27 04:36:48;;;;;;;2.97;1.20;;;;;;;;;;5067046;28;20209;-73
2022/07/27 04:39:15;;;;;;;1.23;1.00;;;;;;;;;;5064575;28;20220;-73
2022/07/27 04:41:41;;;;;;;1.77;1.10;;;;;;;;;;5061770;28;20682;-72
2022/07/27 04:44:07;;;;;;;1.77;1.10;;;;;;;;;;5063773;28;20209;-73
2022/07/27 04:46:33;;;;;;;1.17;1.00;;;;;;;;;;5072227;28;20185;-73
2022/07/27 04:49:00;;;;;;;1.37;0.90;;;;;;;;;;5063421;28;20224;-72
2022/07/27 04:51:26;;;;;;;1.27;1.10;;;;;;;;;;5067612;28;20274;-72
2022/07/27 04:53:52;;;;;;;1.10;1.00;;;;;;;;;;5080885;28;20236;-72
2022/07/27 04:56:18;;;;;;;1.90;1.00;;;;;;;;;;5074063;28;20201;-72
2022/07/27 04:58:44;;;;;;;1.30;1.00;;;;;;;;;;5072133;28;20177;-72
2022/07/27 05:01:11;;;;;;;2.60;1.10;;;;;;;;;;5062483;28;20177;-72
2022/07/27 05:03:38;;;;;;;5.80;1.17;;;;;;;;;;5074342;28;20197;-72
2022/07/27 05:06:04;;;;;;;2.30;1.00;;;;;;;;;;5074479;28;20661;-72
2022/07/27 05:08:30;;;;;;;1.30;0.90;;;;;;;;;;5069663;28;20186;-72
2022/07/27 05:10:56;;;;;;;1.80;1.00;;;;;;;;;;5061450;28;20205;-72
2022/07/27 05:13:23;;;;;;;1.77;1.00;;;;;;;;;;5072135;28;20604;-73
2022/07/27 05:15:49;;;;;;;1.27;0.90;;;;;;;;;;5082600;28;20205;-72
2022/07/27 05:18:15;;;;;;;1.90;1.10;;;;;;;;;;5072912;28;20192;-72
2022/07/27 05:20:41;;;;;;;2.50;0.97;;;;;;;;;;5065733;28;20660;-72
2022/07/27 05:23:07;;;;;;;1.97;1.07;;;;;;;;;;5079817;28;20212;-72
2022/07/27 05:25:33;;;;;;;1.70;0.90;;;;;;;;;;5067145;28;20181;-72
2022/07/27 05:28:00;;;;;;;1.30;1.00;;;;;;;;;;5079184;28;20204;-72
2022/07/27 05:30:26;;;;;;;1.50;0.90;;;;;;;;;;5070000;28;20608;-72
2022/07/27 05:32:53;;;;;;;1.77;0.90;;;;;;;;;;5073251;28;20201;-73
2022/07/27 05:35:19;;;;;;;2.90;1.13;;;;;;;;;;5061533;28;20521;-72
2022/07/27 05:37:46;;;;;;;2.10;1.10;;;;;;;;;;5075401;28;20589;-72
2022/07/27 05:40:12;;;;;;;1.97;1.20;;;;;;;;;;5064535;28;20559;-72
2022/07/27 05:42:42;;;;;;;2.47;1.10;;;;;;;;;;5064945;28;20331;-72
2022/07/27 05:45:09;;;;;;;1.13;1.00;;;;;;;;;;5076334;28;20181;-72
2022/07/27 05:47:35;;;;;;;1.03;1.00;;;;;;;;;;5078276;28;20181;-72
2022/07/27 05:50:01;;;;;;;1.27;1.00;;;;;;;;;;5059296;28;20181;-72
2022/07/27 05:52:27;;;;;;;3.53;1.20;;;;;;;;;;5072424;28;20189;-72
2022/07/27 05:54:53;;;;;;;2.17;1.00;;;;;;;;;;5066742;28;20231;-72
2022/07/27 05:57:19;;;;;;;1.93;1.20;;;;;;;;;;5071607;28;20567;-73
2022/07/27 05:59:46;;;;;;;2.77;1.10;;;;;;;;;;5062549;28;20367;-72
2022/07/27 06:02:12;;;;;;;1.50;1.20;;;;;;;;;;5068451;28;20263;-73
2022/07/27 06:04:38;;;;;;;2.40;1.00;;;;;;;;;;5070066;28;20177;-73
2022/07/27 06:09:49;;;;;;;1.47;1.10;;;;;;;;;;5072627;28;20185;-72
2022/07/27 06:12:15;;;;;;;1.90;1.03;;;;;;;;;;5062856;28;20263;-72
2022/07/27 06:14:42;;;;;;;1.80;1.03;;;;;;;;;;5068597;28;20264;-72
2022/07/27 06:17:09;;;;;;;1.37;1.00;;;;;;;;;;5073755;28;20208;-72
2022/07/27 06:19:38;;;;;;;1.07;0.90;;;;;;;;;;5083136;28;20650;-72
2022/07/27 06:22:05;;;;;;;1.10;1.00;;;;;;;;;;5073948;28;20173;-72
2022/07/27 06:24:32;;;;;;;1.80;1.10;;;;;;;;;;5064946;28;20674;-72
2022/07/27 06:26:58;;;;;;;1.03;0.90;;;;;;;;;;5066112;28;20186;-72
2022/07/27 06:29:24;;;;;;;2.70;1.13;;;;;;;;;;5064641;28;20243;-72
2022/07/27 06:31:50;;;;;;;1.73;1.10;;;;;;;;;;5073253;28;20189;-72
2022/07/27 06:34:16;;;;;;;3.13;1.10;;;;;;;;;;5067537;28;20209;-72
2022/07/27 06:36:44;;;;;;;1.70;1.10;;;;;;;;;;5075848;28;20235;-72
2022/07/27 06:39:10;;;;;;;1.60;1.00;;;;;;;;;;5068216;28;20235;-72
2022/07/27 06:41:37;;;;;;;2.13;1.10;;;;;;;;;;5077396;28;20183;-72
2022/07/27 06:44:03;;;;;;;2.00;1.10;;;;;;;;;;5070425;28;20705;-72
2022/07/27 06:46:29;;;;;;;1.20;1.07;;;;;;;;;;5073403;28;20186;-73
2022/07/27 06:48:55;;;;;;;2.10;1.20;;;;;;;;;;5065705;28;20182;-72
2022/07/27 06:51:22;;;;;;;3.70;1.30;;;;;;;;;;5077089;28;20182;-72
2022/07/27 06:53:51;;;;;;;3.63;1.20;;;;;;;;;;5062009;28;20208;-73
2022/07/27 06:56:18;;;;;;;2.80;1.10;;;;;;;;;;5078007;28;20205;-73
2022/07/27 06:58:45;;;;;;;2.03;1.13;;;;;;;;;;5067871;28;20210;-72
2022/07/27 07:01:11;;;;;;;1.73;1.00;;;;;;;;;;5071094;28;20648;-73
2022/07/27 07:03:37;;;;;;;1.90;1.20;;;;;;;;;;5059377;28;20228;-72
2022/07/27 07:06:03;;;;;;;2.80;1.00;;;;;;;;;;5062571;28;20669;-72
2022/07/27 07:08:29;;;;;;;2.63;1.40;;;;;;;;;;5063931;28;20269;-72
2022/07/27 07:10:56;;;;;;;3.30;1.20;;;;;;;;;;5071670;28;20192;-72
2022/07/27 07:13:22;;;;;;;2.57;1.20;;;;;;;;;;5060524;28;20669;-72
2022/07/27 07:15:48;;;;;;;3.50;1.20;;;;;;;;;;5071529;28;20205;-72
2022/07/27 07:18:14;;;;;;;2.33;1.27;;;;;;;;;;5066886;28;20189;-72
2022/07/27 07:20:41;;;;;;;2.63;1.40;;;;;;;;;;5062946;28;20454;-72
2022/07/27 07:23:07;;;;;;;2.50;1.07;;;;;;;;;;5064804;28;20250;-72
2022/07/27 07:25:34;;;;;;;1.60;1.17;;;;;;;;;;5065828;28;20181;-73
2022/07/27 07:28:02;;;;;;;1.37;1.00;;;;;;;;;;5063019;28;20283;-73
2022/07/27 07:30:34;;;;;;;2.33;1.20;;;;;;;;;;5066599;28;20347;-74
2022/07/27 07:33:01;;;;;;;2.03;1.00;;;;;;;;;;5054545;28;20216;-74
2022/07/27 07:35:27;;;;;;;2.40;1.07;;;;;;;;;;5075691;28;20602;-73
2022/07/27 07:37:53;;;;;;;2.10;1.17;;;;;;;;;;5066395;28;20173;-74
2022/07/27 07:40:20;;;;;;;1.13;0.97;;;;;;;;;;5067069;28;20228;-73
2022/07/27 07:42:47;;;;;;;2.10;1.30;;;;;;;;;;5074372;28;20197;-76
2022/07/27 07:45:14;;;;;;;1.33;1.00;;;;;;;;;;5078559;28;20553;-78
2022/07/27 07:47:41;;;;;;;2.33;1.17;;;;;;;;;;5075819;28;20550;-73
2022/07/27 07:50:07;;;;;;;1.63;1.10;;;;;;;;;;5076626;28;20185;-74
2022/07/27 07:52:34;;;;;;;2.93;1.10;;;;;;;;;;5083244;28;20212;-76
2022/07/27 07:55:00;;;;;;;2.83;1.00;;;;;;;;;;5062645;28;20213;-77
2022/07/27 07:57:26;;;;;;;3.60;1.13;;;;;;;;;;5081689;28;20186;-77
2022/07/27 07:59:53;;;;;;;2.17;1.10;;;;;;;;;;5073676;28;21070;-74
2022/07/27 08:02:20;;;;;;;3.03;1.20;;;;;;;;;;5076276;28;20174;-74
2022/07/27 08:04:46;;;;;;;2.37;1.00;;;;;;;;;;5066461;28;20216;-74
2022/07/27 08:07:13;;;;;;;2.33;1.13;;;;;;;;;;5078670;28;20252;-74
2022/07/27 08:09:39;;;;;;;1.67;1.10;;;;;;;;;;5070191;28;20173;-74
2022/07/27 08:12:05;;;;;;;1.23;0.90;;;;;;;;;;5068397;28;20197;-73
2022/07/27 08:14:32;;;;;;;1.77;1.30;;;;;;;;;;5069446;28;20571;-74
2022/07/27 08:16:58;;;;;;;1.57;0.90;;;;;;;;;;5084206;28;20210;-75
2022/07/27 08:19:24;;;;;;;2.37;1.17;;;;;;;;;;5071448;28;20188;-74
2022/07/27 08:21:51;;;;;;;3.93;1.17;;;;;;;;;;5082312;28;20177;-74
2022/07/27 08:24:17;;;;;;;2.07;1.07;;;;;;;;;;5077958;28;20266;-74
2022/07/27 08:26:43;;;;;;;2.20;1.20;;;;;;;;;;5081843;28;20577;-76
2022/07/27 08:29:09;;;;;;;2.50;1.20;;;;;;;;;;5063977;28;20190;-76
2022/07/27 08:31:36;;;;;;;2.33;1.17;;;;;;;;;;5066940;28;20564;-75
2022/07/27 08:34:02;;;;;;;3.83;1.20;;;;;;;;;;5074366;28;20321;-76
2022/07/27 08:36:28;;;;;;;2.67;1.20;;;;;;;;;;5093375;28;20193;-77
2022/07/27 08:38:54;;;;;;;2.40;1.30;;;;;;;;;;5073643;28;20193;-75
2022/07/27 08:41:22;;;;;;;3.93;1.37;;;;;;;;;;5059665;28;20229;-74
2022/07/27 08:43:48;;;;;;;4.03;1.50;;;;;;;;;;5066944;28;20209;-75
2022/07/27 08:46:17;;;;;;;3.33;1.30;;;;;;;;;;5069043;28;20182;-74
2022/07/27 08:48:43;;;;;;;2.30;1.20;;;;;;;;;;5067419;28;20189;-74
2022/07/27 08:51:11;;;;;;;1.63;1.23;;;;;;;;;;5073630;28;20318;-75
2022/07/27 08:53:37;;;;;;;5.13;1.50;;;;;;;;;;5067891;28;20201;-75
2022/07/27 08:56:03;;;;;;;3.13;1.30;;;;;;;;;;5070061;28;20699;-75
2022/07/27 08:58:29;;;;;;;1.63;1.33;;;;;;;;;;5070025;28;20182;-75
2022/07/27 09:00:56;;;;;;;2.20;1.37;;;;;;;;;;5073321;28;20259;-75
2022/07/27 09:03:23;;;;;;;4.47;1.50;;;;;;;;;;5071819;28;20200;-75
2022/07/27 09:05:49;;;;;;;4.50;1.33;;;;;;;;;;5075143;28;20235;-75
2022/07/27 09:08:23;;;;;;;3.30;1.40;;;;;;;;;;5076880;28;20234;-75
2022/07/27 09:10:50;;;;;;;2.67;1.40;;;;;;;;;;5075387;28;20257;-75
2022/07/27 09:13:20;;;;;;;4.10;1.57;;;;;;;;;;5075384;28;20200;-75
2022/07/27 09:15:47;;;;;;;3.67;1.50;;;;;;;;;;5068442;28;20219;-75
2022/07/27 09:18:17;;;;;;;2.60;1.50;;;;;;;;;;5072506;28;20178;-75
2022/07/27 09:20:43;;;;;;;4.17;1.43;;;;;;;;;;5071365;28;20188;-75
2022/07/27 09:23:09;;;;;;;2.87;1.43;;;;;;;;;;5081365;28;20486;-75
2022/07/27 09:25:37;;;;;;;2.37;1.47;;;;;;;;;;5072439;28;20669;-74
2022/07/27 09:28:03;;;;;;;2.67;1.20;;;;;;;;;;5076448;28;20231;-75
2022/07/27 09:30:29;;;;;;;2.47;1.40;;;;;;;;;;5071419;28;20177;-75
2022/07/27 09:32:57;;;;;;;2.83;1.40;;;;;;;;;;5078859;28;20293;-75
2022/07/27 09:35:25;;;;;;;2.57;1.43;;;;;;;;;;5066299;28;20208;-75
2022/07/27 09:37:51;;;;;;;4.23;1.23;;;;;;;;;;5079337;28;20194;-74
2022/07/27 09:40:22;;;;;;;4.17;1.50;;;;;;;;;;5067146;28;20226;-74
2022/07/27 09:43:06;;;;;;;2.40;1.30;;;;;;;;;;5077624;28;20246;-75
2022/07/27 09:45:34;;;;;;;2.97;1.50;;;;;;;;;;5075006;28;20549;-74
2022/07/27 09:48:10;;;;;;;2.00;1.60;;;;;;;;;;5083558;28;20186;-74
2022/07/27 09:50:40;;;;;;;4.03;1.37;;;;;;;;;;5064741;28;20653;-74
2022/07/27 09:53:17;;;;;;;3.03;1.30;;;;;;;;;;5076400;28;20222;-74
2022/07/27 09:55:45;;;;;;;4.13;1.73;;;;;;;;;;5078602;28;20209;-73
2022/07/27 09:58:11;;;;;;;2.30;1.53;;;;;;;;;;5069044;28;20189;-73
2022/07/27 10:00:37;;;;;;;5.47;1.60;;;;;;;;;;5070322;28;20260;-74
2022/07/27 10:03:06;;;;;;;4.83;1.50;;;;;;;;;;5064724;28;20337;-74
2022/07/27 10:05:33;;;;;;;3.50;1.80;;;;;;;;;;5070793;28;20186;-74
2022/07/27 10:07:59;;;;;;;2.80;1.50;;;;;;;;;;5073794;28;20190;-74
2022/07/27 10:10:25;;;;;;;2.87;1.63;;;;;;;;;;5067672;28;20717;-75
2022/07/27 10:12:51;;;;;;;2.60;1.50;;;;;;;;;;5058513;28;20294;-74
2022/07/27 10:15:18;;;;;;;5.83;1.90;;;;;;;;;;5076643;28;20227;-75
2022/07/27 10:17:45;;;;;;;3.17;1.50;;;;;;;;;;5068705;28;20177;-74
2022/07/27 10:20:13;;;;;;;6.47;1.60;;;;;;;;;;5071334;28;21283;-77
2022/07/27 10:22:51;;;;;;;3.13;1.77;;;;;;;;;;5064891;28;20249;-77
2022/07/27 10:25:18;;;;;;;3.03;1.50;;;;;;;;;;5077787;28;20187;-75
2022/07/27 10:27:48;;;;;;;1.83;1.40;;;;;;;;;;5072758;28;20193;-75
2022/07/27 10:30:16;;;;;;;3.37;1.50;;;;;;;;;;5065706;28;20184;-75
2022/07/27 10:32:43;;;;;;;3.87;1.50;;;;;;;;;;5069528;28;20198;-75
2022/07/27 10:35:29;;;;;;;4.47;1.60;;;;;;;;;;5062421;28;20264;-75
2022/07/27 10:38:09;;;;;;;3.33;1.60;;;;;;;;;;5055258;28;20223;-75
2022/07/27 10:40:37;;;;;;;2.93;1.77;;;;;;;;;;5068221;28;20182;-74
2022/07/27 10:43:05;;;;;;;4.80;1.40;;;;;;;;;;5066208;28;20252;-74
2022/07/27 10:45:43;;;;;;;3.23;1.60;;;;;;;;;;5069939;28;20181;-75
2022/07/27 10:48:29;;;;;;;2.30;1.40;;;;;;;;;;5075536;28;20555;-75
2022/07/27 10:50:56;;;;;;;3.40;1.50;;;;;;;;;;5061196;28;20192;-75
2022/07/27 10:53:31;;;;;;;3.77;1.70;;;;;;;;;;5069137;28;20212;-75
2022/07/27 10:55:58;;;;;;;2.37;1.43;;;;;;;;;;5070791;28;20219;-75
2022/07/27 10:58:27;;;;;;;3.10;1.77;;;;;;;;;;5079893;28;20539;-77
2022/07/27 11:00:53;;;;;;;5.07;1.87;;;;;;;;;;5066186;28;20266;-77
2022/07/27 11:03:23;;;;;;;4.83;1.80;;;;;;;;;;5076431;28;20569;-76
2022/07/27 11:05:55;;;;;;;9.53;2.20;;;;;;;;;;5072213;28;20653;-76
2022/07/27 11:08:25;;;;;;;3.27;1.70;;;;;;;;;;5067607;28;20660;-76
2022/07/27 11:10:51;;;;;;;2.67;1.57;;;;;;;;;;5063489;28;20706;-76
2022/07/27 11:13:18;;;;;;;3.97;1.80;;;;;;;;;;5069418;28;20561;-75
2022/07/27 11:16:00;;;;;;;4.37;1.60;;;;;;;;;;5070258;28;20201;-76
2022/07/27 11:18:27;;;;;;;4.30;1.80;;;;;;;;;;5063965;28;20184;-77
2022/07/27 11:21:11;;;;;;;3.87;1.97;;;;;;;;;;5067815;28;20179;-76
2022/07/27 11:23:38;;;;;;;4.63;1.73;;;;;;;;;;5072624;28;20282;-76
2022/07/27 11:26:04;;;;;;;2.73;1.60;;;;;;;;;;5074503;28;20310;-76
2022/07/27 11:28:31;;;;;;;3.70;1.60;;;;;;;;;;5070123;28;20846;-75
2022/07/27 11:30:58;;;;;;;6.83;1.70;;;;;;;;;;5069316;28;20213;-76
2022/07/27 11:33:25;;;;;;;3.90;1.70;;;;;;;;;;5069708;28;20223;-76
2022/07/27 11:35:53;;;;;;;3.87;1.80;;;;;;;;;;5062683;28;20221;-76
2022/07/27 11:38:19;;;;;;;4.07;1.90;;;;;;;;;;5064186;28;20671;-77
2022/07/27 11:40:47;;;;;;;2.63;1.80;;;;;;;;;;5071180;28;20254;-77
2022/07/27 11:43:13;;;;;;;3.20;1.80;;;;;;;;;;5074170;28;20271;-76
2022/07/27 11:45:40;;;;;;;3.57;1.73;;;;;;;;;;5067612;28;20189;-76
2022/07/27 11:48:16;;;;;;;2.87;1.90;;;;;;;;;;5068681;28;20191;-75
2022/07/27 11:50:58;;;;;;;2.87;1.53;;;;;;;;;;5067050;28;20619;-72
2022/07/27 11:53:27;;;;;;;3.30;1.70;;;;;;;;;;5064033;28;20205;-75
2022/07/27 11:55:54;;;;;;;3.70;1.90;;;;;;;;;;5072927;28;20627;-75
2022/07/27 11:58:20;;;;;;;3.77;1.97;;;;;;;;;;5068871;28;20181;-74
2022/07/27 12:00:46;;;;;;;4.00;1.73;;;;;;;;;;5068763;28;20189;-73
2022/07/27 12:03:24;;;;;;;3.30;1.57;;;;;;;;;;5073654;28;20197;-73
2022/07/27 12:05:55;;;;;;;3.13;1.83;;;;;;;;;;5064555;28;20188;-73
2022/07/27 12:08:22;;;;;;;3.70;1.77;;;;;;;;;;5065004;28;20188;-75
2022/07/27 12:10:58;;;;;;;3.73;1.77;;;;;;;;;;5058187;28;20359;-75
2022/07/27 12:13:34;;;;;;;4.37;1.77;;;;;;;;;;5066285;28;20208;-73
2022/07/27 12:16:01;;;;;;;5.60;1.93;;;;;;;;;;5069470;28;20201;-78
2022/07/27 12:18:40;;;;;;;4.07;1.90;;;;;;;;;;5061899;28;20197;-76
2022/07/27 12:21:15;;;;;;;4.80;1.80;;;;;;;;;;5063314;28;20210;-76
2022/07/27 12:23:51;;;;;;;3.60;1.60;;;;;;;;;;5070614;28;20193;-76
2022/07/27 12:26:19;;;;;;;3.67;1.50;;;;;;;;;;5072181;28;20197;-73
2022/07/27 12:28:45;;;;;;;6.07;1.70;;;;;;;;;;5064445;28;20190;-75
2022/07/27 12:31:17;;;;;;;5.10;1.60;;;;;;;;;;5059006;28;20187;-74
2022/07/27 12:33:44;;;;;;;2.90;1.80;;;;;;;;;;5066512;28;20201;-74
2022/07/27 12:36:10;;;;;;;4.43;1.67;;;;;;;;;;5070879;28;20202;-75
2022/07/27 12:38:38;;;;;;;3.90;1.60;;;;;;;;;;5063904;28;20271;-74
2022/07/27 12:41:04;;;;;;;3.53;1.77;;;;;;;;;;5067454;28;20186;-73
2022/07/27 12:43:30;;;;;;;3.33;1.80;;;;;;;;;;5071682;28;20642;-75
2022/07/27 12:45:57;;;;;;;2.47;1.80;;;;;;;;;;5074199;28;20205;-72
2022/07/27 12:48:24;;;;;;;3.57;1.80;;;;;;;;;;5066121;28;20182;-73
2022/07/27 12:51:16;;;;;;;4.63;1.70;;;;;;;;;;5061110;28;20274;-72
2022/07/27 12:53:42;;;;;;;5.13;1.90;;;;;;;;;;5060911;28;20215;-72
2022/07/27 12:56:09;;;;;;;4.23;1.50;;;;;;;;;;5059753;28;20217;-72
2022/07/27 12:58:36;;;;;;;1.87;1.47;;;;;;;;;;5070943;28;20701;-72
2022/07/27 13:01:03;;;;;;;4.47;1.80;;;;;;;;;;5070335;28;20265;-72
2022/07/27 13:03:29;;;;;;;2.17;1.73;;;;;;;;;;5073792;28;20227;-73
2022/07/27 13:05:55;;;;;;;3.80;1.60;;;;;;;;;;5074475;28;20344;-72
2022/07/27 13:08:22;;;;;;;2.73;1.50;;;;;;;;;;5081421;28;20537;-72
2022/07/27 13:10:50;;;;;;;3.13;1.60;;;;;;;;;;5073327;28;20743;-72
2022/07/27 13:13:17;;;;;;;2.87;1.70;;;;;;;;;;5076570;28;20228;-72
2022/07/27 13:15:43;;;;;;;3.20;1.50;;;;;;;;;;5070630;28;20959;-73
2022/07/27 13:18:10;;;;;;;2.80;1.60;;;;;;;;;;5063670;28;20199;-72
2022/07/27 13:20:36;;;;;;;5.50;1.60;;;;;;;;;;5071377;28;20188;-72
2022/07/27 13:23:03;;;;;;;2.67;1.50;;;;;;;;;;5068998;28;20193;-72
2022/07/27 13:25:29;;;;;;;3.33;1.80;;;;;;;;;;5071277;28;20185;-72
2022/07/27 13:27:55;;;;;;;2.13;1.30;;;;;;;;;;5066428;28;20186;-72
2022/07/27 13:30:23;;;;;;;2.93;1.50;;;;;;;;;;5067193;28;20197;-73
2022/07/27 13:32:49;;;;;;;3.17;1.47;;;;;;;;;;5069843;28;20203;-73
2022/07/27 13:35:15;;;;;;;3.90;1.80;;;;;;;;;;5074044;28;20208;-73
2022/07/27 13:37:42;;;;;;;2.73;1.37;;;;;;;;;;5067770;28;20733;-73
2022/07/27 13:40:09;;;;;;;2.63;1.40;;;;;;;;;;5064436;28;20215;-73
2022/07/27 13:42:35;;;;;;;3.27;1.63;;;;;;;;;;5070923;28;20181;-73
2022/07/27 13:45:01;;;;;;;2.30;1.30;;;;;;;;;;5070148;28;20218;-73
2022/07/27 13:47:27;;;;;;;3.30;1.50;;;;;;;;;;5068446;28;20177;-73
2022/07/27 13:49:54;;;;;;;3.27;1.50;;;;;;;;;;5065004;28;20242;-72
2022/07/27 13:52:20;;;;;;;2.57;1.30;;;;;;;;;;5069772;28;20235;-73
2022/07/27 13:54:47;;;;;;;2.73;1.70;;;;;;;;;;5071617;28;20192;-73
2022/07/27 13:57:13;;;;;;;2.83;1.50;;;;;;;;;;5074043;28;20572;-73
2022/07/27 13:59:39;;;;;;;3.93;1.60;;;;;;;;;;5065078;28;20186;-73
2022/07/27 14:02:05;;;;;;;4.83;1.53;;;;;;;;;;5072901;28;20179;-73
2022/07/27 14:04:34;;;;;;;4.20;1.30;;;;;;;;;;5068135;28;20289;-73
2022/07/27 14:07:01;;;;;;;3.63;1.80;;;;;;;;;;5072461;28;20196;-74
2022/07/27 14:12:12;;;;;;;3.67;1.57;;;;;;;;;;5067778;28;20196;-73
2022/07/27 14:14:38;;;;;;;1.83;1.37;;;;;;;;;;5062390;28;20202;-73
2022/07/27 14:17:05;;;;;;;5.43;1.60;;;;;;;;;;5069828;28;20201;-74
2022/07/27 14:19:32;;;;;;;2.93;1.53;;;;;;;;;;5065736;28;20559;-73
2022/07/27 14:21:58;;;;;;;1.77;1.27;;;;;;;;;;5073016;28;20255;-74
2022/07/27 14:24:24;;;;;;;3.00;1.57;;;;;;;;;;5066835;28;20290;-73
2022/07/27 14:26:50;;;;;;;3.50;1.50;;;;;;;;;;5068985;28;20244;-73
2022/07/27 14:29:17;;;;;;;2.63;1.30;;;;;;;;;;5067793;28;20237;-74
2022/07/27 14:31:43;;;;;;;2.33;1.40;;;;;;;;;;5065724;28;20190;-73
2022/07/27 14:34:09;;;;;;;3.73;1.37;;;;;;;;;;5067469;28;20232;-73
2022/07/27 14:36:36;;;;;;;3.90;1.20;;;;;;;;;;5070780;28;20383;-74
2022/07/27 14:39:03;;;;;;;2.10;1.40;;;;;;;;;;5056272;28;20246;-73
2022/07/27 14:41:30;;;;;;;5.13;1.40;;;;;;;;;;5070262;28;20180;-73
2022/07/27 14:43:56;;;;;;;3.03;1.53;;;;;;;;;;5066739;28;20204;-73
2022/07/27 14:46:22;;;;;;;3.17;1.60;;;;;;;;;;5063721;28;20277;-73
2022/07/27 14:48:48;;;;;;;3.80;1.60;;;;;;;;;;5067526;28;20173;-73